sensor_id;sensor_type;location;lat;lon;timestamp;pressure;altitude;pressure_sealevel;temperature;humidity
20987;BME280;10652;50.306;8.570;2023-11-19T00:03:18;97661.09;;;6.61;100.00
20987;BME280;10652;50.306;8.570;2023-11-19T00:07:20;97656.59;;;6.65;100.00
20987;BME280;10652;50.306;8.570;2023-11-19T00:11:23;97648.72;;;6.66;100.00
20987;BME280;10652;50.306;8.570;2023-11-19T00:15:25;97647.81;;;6.67;100.00
20987;BME280;10652;50.306;8.570;2023-11-19T00:19:27;97657.28;;;6.70;100.00
20987;BME280;10652;50.306;8.570;2023-11-19T00:23:29;97650.31;;;6.70;100.00
20987;BME280;10652;50.306;8.570;2023-11-19T00:27:32;97635.41;;;6.72;100.00
20987;BME280;10652;50.306;8.570;2023-11-19T00:31:34;97655.31;;;6.76;100.00
20987;BME280;10652;50.306;8.570;2023-11-19T00:35:36;97647.34;;;6.79;100.00
20987;BME280;10652;50.306;8.570;2023-11-19T00:39:39;97640.25;;;6.83;100.00
20987;BME280;10652;50.306;8.570;2023-11-19T00:43:41;97635.00;;;6.83;100.00
20987;BME280;10652;50.306;8.570;2023-11-19T00:47:43;97644.50;;;6.85;100.00
20987;BME280;10652;50.306;8.570;2023-11-19T00:51:45;97643.47;;;6.89;100.00
20987;BME280;10652;50.306;8.570;2023-11-19T00:55:47;97631.16;;;6.93;100.00
20987;BME280;10652;50.306;8.570;2023-11-19T00:59:50;97607.59;;;6.95;100.00
20987;BME280;10652;50.306;8.570;2023-11-19T01:03:52;97602.97;;;7.01;100.00
20987;BME280;10652;50.306;8.570;2023-11-19T01:07:55;97597.41;;;7.09;100.00
20987;BME280;10652;50.306;8.570;2023-11-19T01:11:57;97601.50;;;7.16;100.00
20987;BME280;10652;50.306;8.570;2023-11-19T01:16:00;97594.34;;;7.21;100.00
20987;BME280;10652;50.306;8.570;2023-11-19T01:20:05;97588.94;;;7.25;100.00
20987;BME280;10652;50.306;8.570;2023-11-19T01:24:08;97588.00;;;7.26;100.00
20987;BME280;10652;50.306;8.570;2023-11-19T01:28:12;97584.56;;;7.26;100.00
20987;BME280;10652;50.306;8.570;2023-11-19T01:32:14;97601.13;;;7.25;100.00
20987;BME280;10652;50.306;8.570;2023-11-19T01:36:17;97602.09;;;7.22;100.00
20987;BME280;10652;50.306;8.570;2023-11-19T01:40:20;97586.56;;;7.19;100.00
20987;BME280;10652;50.306;8.570;2023-11-19T01:44:22;97590.91;;;7.19;100.00
20987;BME280;10652;50.306;8.570;2023-11-19T01:48:25;97590.16;;;7.17;100.00
20987;BME280;10652;50.306;8.570;2023-11-19T01:52:27;97561.47;;;7.15;100.00
20987;BME280;10652;50.306;8.570;2023-11-19T01:56:30;97565.97;;;7.12;100.00
20987;BME280;10652;50.306;8.570;2023-11-19T02:00:32;97552.91;;;7.12;100.00
20987;BME280;10652;50.306;8.570;2023-11-19T02:04:35;97555.72;;;7.07;100.00
20987;BME280;10652;50.306;8.570;2023-11-19T02:08:38;97542.75;;;7.04;100.00
20987;BME280;10652;50.306;8.570;2023-11-19T02:12:41;97539.38;;;7.02;100.00
20987;BME280;10652;50.306;8.570;2023-11-19T02:16:46;97553.41;;;7.00;100.00
20987;BME280;10652;50.306;8.570;2023-11-19T02:20:50;97558.63;;;7.00;100.00
20987;BME280;10652;50.306;8.570;2023-11-19T02:24:56;97535.25;;;6.97;100.00
20987;BME280;10652;50.306;8.570;2023-11-19T02:29:01;97530.94;;;6.96;100.00
20987;BME280;10652;50.306;8.570;2023-11-19T02:33:08;97528.22;;;6.99;100.00
20987;BME280;10652;50.306;8.570;2023-11-19T02:37:11;97523.72;;;7.02;100.00
20987;BME280;10652;50.306;8.570;2023-11-19T02:41:14;97521.81;;;7.06;100.00
20987;BME280;10652;50.306;8.570;2023-11-19T02:45:16;97503.69;;;7.03;100.00
20987;BME280;10652;50.306;8.570;2023-11-19T02:49:19;97503.59;;;7.04;100.00
20987;BME280;10652;50.306;8.570;2023-11-19T02:53:21;97512.22;;;7.06;100.00
20987;BME280;10652;50.306;8.570;2023-11-19T02:57:24;97516.47;;;7.09;100.00
20987;BME280;10652;50.306;8.570;2023-11-19T03:01:26;97505.81;;;7.13;100.00
20987;BME280;10652;50.306;8.570;2023-11-19T03:05:33;97487.44;;;7.16;100.00
20987;BME280;10652;50.306;8.570;2023-11-19T03:09:35;97495.19;;;7.18;100.00
20987;BME280;10652;50.306;8.570;2023-11-19T03:13:37;97497.69;;;7.21;100.00
20987;BME280;10652;50.306;8.570;2023-11-19T03:17:41;97495.72;;;7.26;100.00
20987;BME280;10652;50.306;8.570;2023-11-19T03:21:44;97496.25;;;7.34;100.00
20987;BME280;10652;50.306;8.570;2023-11-19T03:25:46;97480.44;;;7.37;100.00
20987;BME280;10652;50.306;8.570;2023-11-19T03:29:48;97488.78;;;7.45;100.00
20987;BME280;10652;50.306;8.570;2023-11-19T03:33:51;97475.97;;;7.59;100.00
20987;BME280;10652;50.306;8.570;2023-11-19T03:37:53;97469.63;;;7.83;100.00
20987;BME280;10652;50.306;8.570;2023-11-19T03:41:55;97480.97;;;8.03;100.00
20987;BME280;10652;50.306;8.570;2023-11-19T03:45:57;97483.84;;;8.17;100.00
20987;BME280;10652;50.306;8.570;2023-11-19T03:49:59;97474.59;;;8.27;100.00
20987;BME280;10652;50.306;8.570;2023-11-19T03:54:02;97481.97;;;8.38;100.00
20987;BME280;10652;50.306;8.570;2023-11-19T03:58:04;97472.06;;;8.44;100.00
20987;BME280;10652;50.306;8.570;2023-11-19T04:02:06;97465.75;;;8.48;100.00
20987;BME280;10652;50.306;8.570;2023-11-19T04:06:08;97463.28;;;8.45;100.00
20987;BME280;10652;50.306;8.570;2023-11-19T04:10:11;97454.78;;;8.40;100.00
20987;BME280;10652;50.306;8.570;2023-11-19T04:14:13;97453.75;;;8.44;100.00
20987;BME280;10652;50.306;8.570;2023-11-19T04:18:16;97461.44;;;8.47;100.00
20987;BME280;10652;50.306;8.570;2023-11-19T04:22:18;97448.97;;;8.52;100.00
20987;BME280;10652;50.306;8.570;2023-11-19T04:26:20;97462.53;;;8.60;100.00
20987;BME280;10652;50.306;8.570;2023-11-19T04:30:22;97455.47;;;8.62;100.00
20987;BME280;10652;50.306;8.570;2023-11-19T04:34:25;97448.38;;;8.64;100.00
20987;BME280;10652;50.306;8.570;2023-11-19T04:38:27;97431.91;;;8.62;100.00
20987;BME280;10652;50.306;8.570;2023-11-19T04:42:30;97439.22;;;8.56;100.00
20987;BME280;10652;50.306;8.570;2023-11-19T04:46:33;97431.13;;;8.60;100.00
20987;BME280;10652;50.306;8.570;2023-11-19T04:50:36;97437.63;;;8.70;100.00
20987;BME280;10652;50.306;8.570;2023-11-19T04:54:41;97444.09;;;8.81;100.00
20987;BME280;10652;50.306;8.570;2023-11-19T04:58:45;97469.84;;;8.90;100.00
20987;BME280;10652;50.306;8.570;2023-11-19T05:02:47;97456.19;;;9.00;100.00
20987;BME280;10652;50.306;8.570;2023-11-19T05:06:49;97444.31;;;9.28;100.00
20987;BME280;10652;50.306;8.570;2023-11-19T05:10:51;97451.78;;;9.35;100.00
20987;BME280;10652;50.306;8.570;2023-11-19T05:14:53;97445.78;;;9.33;100.00
20987;BME280;10652;50.306;8.570;2023-11-19T05:18:55;97439.75;;;9.31;100.00
20987;BME280;10652;50.306;8.570;2023-11-19T05:22:58;97453.56;;;9.18;100.00
20987;BME280;10652;50.306;8.570;2023-11-19T05:27:02;97462.81;;;9.07;100.00
20987;BME280;10652;50.306;8.570;2023-11-19T05:31:04;97458.44;;;9.08;100.00
20987;BME280;10652;50.306;8.570;2023-11-19T05:35:08;97448.66;;;9.11;100.00
20987;BME280;10652;50.306;8.570;2023-11-19T05:39:10;97440.34;;;9.03;100.00
20987;BME280;10652;50.306;8.570;2023-11-19T05:43:13;97444.41;;;8.92;100.00
20987;BME280;10652;50.306;8.570;2023-11-19T05:47:16;97438.41;;;8.90;100.00
20987;BME280;10652;50.306;8.570;2023-11-19T05:51:19;97433.31;;;8.87;100.00
20987;BME280;10652;50.306;8.570;2023-11-19T05:55:21;97439.63;;;8.83;100.00
20987;BME280;10652;50.306;8.570;2023-11-19T05:59:25;97446.00;;;8.77;100.00
20987;BME280;10652;50.306;8.570;2023-11-19T06:03:27;97451.78;;;8.66;100.00
20987;BME280;10652;50.306;8.570;2023-11-19T06:07:30;97461.63;;;8.61;100.00
20987;BME280;10652;50.306;8.570;2023-11-19T06:11:33;97461.00;;;8.56;100.00
20987;BME280;10652;50.306;8.570;2023-11-19T06:15:36;97479.38;;;8.55;100.00
20987;BME280;10652;50.306;8.570;2023-11-19T06:19:38;97488.44;;;8.66;100.00
20987;BME280;10652;50.306;8.570;2023-11-19T06:23:40;97479.91;;;8.80;100.00
20987;BME280;10652;50.306;8.570;2023-11-19T06:27:42;97479.47;;;8.89;100.00
20987;BME280;10652;50.306;8.570;2023-11-19T06:31:44;97468.66;;;8.95;100.00
20987;BME280;10652;50.306;8.570;2023-11-19T06:35:47;97462.91;;;8.89;100.00
20987;BME280;10652;50.306;8.570;2023-11-19T06:39:50;97471.03;;;8.83;100.00
20987;BME280;10652;50.306;8.570;2023-11-19T06:43:52;97484.28;;;8.80;100.00
20987;BME280;10652;50.306;8.570;2023-11-19T06:47:54;97479.91;;;8.80;100.00
20987;BME280;10652;50.306;8.570;2023-11-19T06:51:56;97493.63;;;8.85;100.00
20987;BME280;10652;50.306;8.570;2023-11-19T06:55:58;97498.78;;;8.87;100.00
20987;BME280;10652;50.306;8.570;2023-11-19T07:00:02;97492.63;;;8.88;100.00
20987;BME280;10652;50.306;8.570;2023-11-19T07:04:07;97488.47;;;8.84;100.00
20987;BME280;10652;50.306;8.570;2023-11-19T07:08:12;97489.38;;;8.83;100.00
20987;BME280;10652;50.306;8.570;2023-11-19T07:12:14;97484.19;;;8.81;100.00
20987;BME280;10652;50.306;8.570;2023-11-19T07:16:17;97487.66;;;8.82;100.00
20987;BME280;10652;50.306;8.570;2023-11-19T07:20:19;97498.03;;;8.85;100.00
20987;BME280;10652;50.306;8.570;2023-11-19T07:24:21;97494.44;;;8.86;100.00
20987;BME280;10652;50.306;8.570;2023-11-19T07:28:24;97486.47;;;8.89;100.00
20987;BME280;10652;50.306;8.570;2023-11-19T07:32:26;97491.53;;;8.92;100.00
20987;BME280;10652;50.306;8.570;2023-11-19T07:36:28;97492.34;;;8.94;100.00
20987;BME280;10652;50.306;8.570;2023-11-19T07:40:31;97496.56;;;8.96;100.00
20987;BME280;10652;50.306;8.570;2023-11-19T07:44:33;97502.47;;;9.00;100.00
20987;BME280;10652;50.306;8.570;2023-11-19T07:48:35;97504.97;;;9.03;100.00
20987;BME280;10652;50.306;8.570;2023-11-19T07:52:38;97502.81;;;9.11;100.00
20987;BME280;10652;50.306;8.570;2023-11-19T07:56:40;97504.69;;;9.26;100.00
20987;BME280;10652;50.306;8.570;2023-11-19T08:00:42;97527.00;;;9.50;100.00
20987;BME280;10652;50.306;8.570;2023-11-19T08:04:44;97526.00;;;9.70;100.00
20987;BME280;10652;50.306;8.570;2023-11-19T08:08:48;97524.22;;;9.88;100.00
20987;BME280;10652;50.306;8.570;2023-11-19T08:12:50;97524.41;;;10.00;100.00
20987;BME280;10652;50.306;8.570;2023-11-19T08:16:52;97532.97;;;10.04;100.00
20987;BME280;10652;50.306;8.570;2023-11-19T08:20:55;97533.56;;;10.09;100.00
20987;BME280;10652;50.306;8.570;2023-11-19T08:24:58;97534.47;;;10.25;100.00
20987;BME280;10652;50.306;8.570;2023-11-19T08:29:00;97544.28;;;10.37;100.00
20987;BME280;10652;50.306;8.570;2023-11-19T08:33:02;97535.84;;;10.48;100.00
20987;BME280;10652;50.306;8.570;2023-11-19T08:37:05;97540.59;;;10.57;100.00
20987;BME280;10652;50.306;8.570;2023-11-19T08:41:07;97543.09;;;10.59;100.00
20987;BME280;10652;50.306;8.570;2023-11-19T08:45:10;97556.50;;;10.54;100.00
20987;BME280;10652;50.306;8.570;2023-11-19T08:49:12;97536.06;;;10.59;100.00
20987;BME280;10652;50.306;8.570;2023-11-19T08:53:14;97538.97;;;11.31;100.00
20987;BME280;10652;50.306;8.570;2023-11-19T08:57:17;97544.66;;;11.40;92.23
20987;BME280;10652;50.306;8.570;2023-11-19T09:01:19;97536.72;;;11.10;91.97
20987;BME280;10652;50.306;8.570;2023-11-19T09:05:21;97533.44;;;10.90;92.07
20987;BME280;10652;50.306;8.570;2023-11-19T09:09:23;97545.31;;;10.82;91.80
20987;BME280;10652;50.306;8.570;2023-11-19T09:13:25;97538.53;;;10.78;93.80
20987;BME280;10652;50.306;8.570;2023-11-19T09:17:27;97530.84;;;10.75;94.14
20987;BME280;10652;50.306;8.570;2023-11-19T09:21:30;97539.72;;;10.72;93.48
20987;BME280;10652;50.306;8.570;2023-11-19T09:25:32;97558.09;;;10.72;91.48
20987;BME280;10652;50.306;8.570;2023-11-19T09:29:37;97552.78;;;10.74;89.39
20987;BME280;10652;50.306;8.570;2023-11-19T09:33:39;97539.56;;;10.75;87.36
20987;BME280;10652;50.306;8.570;2023-11-19T09:37:43;97543.91;;;10.76;85.04
20987;BME280;10652;50.306;8.570;2023-11-19T09:41:45;97539.19;;;10.81;85.11
20987;BME280;10652;50.306;8.570;2023-11-19T09:45:50;97541.56;;;10.86;82.04
20987;BME280;10652;50.306;8.570;2023-11-19T09:49:53;97546.69;;;10.89;80.75
20987;BME280;10652;50.306;8.570;2023-11-19T09:53:59;97549.78;;;10.96;81.85
20987;BME280;10652;50.306;8.570;2023-11-19T09:58:01;97548.78;;;10.98;78.57
20987;BME280;10652;50.306;8.570;2023-11-19T10:02:03;97551.91;;;11.05;77.95
20987;BME280;10652;50.306;8.570;2023-11-19T10:06:07;97545.53;;;11.09;77.86
20987;BME280;10652;50.306;8.570;2023-11-19T10:10:10;97553.28;;;11.12;76.69
20987;BME280;10652;50.306;8.570;2023-11-19T10:14:16;97564.47;;;11.15;73.62
20987;BME280;10652;50.306;8.570;2023-11-19T10:18:27;97561.78;;;11.17;71.77
20987;BME280;10652;50.306;8.570;2023-11-19T10:22:29;97557.84;;;11.24;73.12
20987;BME280;10652;50.306;8.570;2023-11-19T10:26:31;97553.09;;;11.30;72.86
20987;BME280;10652;50.306;8.570;2023-11-19T10:30:35;97556.28;;;11.35;72.70
20987;BME280;10652;50.306;8.570;2023-11-19T10:34:37;97563.91;;;11.40;71.92
20987;BME280;10652;50.306;8.570;2023-11-19T10:38:51;97548.81;;;11.44;72.54
20987;BME280;10652;50.306;8.570;2023-11-19T10:43:02;97557.28;;;11.49;71.32
20987;BME280;10652;50.306;8.570;2023-11-19T10:47:07;97555.56;;;11.48;68.05
20987;BME280;10652;50.306;8.570;2023-11-19T10:51:12;97552.69;;;11.52;70.32
20987;BME280;10652;50.306;8.570;2023-11-19T10:55:19;97537.75;;;11.53;68.17
20987;BME280;10652;50.306;8.570;2023-11-19T10:59:23;97560.19;;;11.58;70.00
20987;BME280;10652;50.306;8.570;2023-11-19T11:03:39;97550.25;;;11.63;70.63
20987;BME280;10652;50.306;8.570;2023-11-19T11:07:42;97550.09;;;11.66;69.16
20987;BME280;10652;50.306;8.570;2023-11-19T11:11:50;97533.44;;;11.66;69.78
20987;BME280;10652;50.306;8.570;2023-11-19T11:15:55;97532.41;;;11.68;69.86
20987;BME280;10652;50.306;8.570;2023-11-19T11:20:01;97529.88;;;11.67;69.62
20987;BME280;10652;50.306;8.570;2023-11-19T11:28:38;97508.84;;;11.67;69.62
20987;BME280;10652;50.306;8.570;2023-11-19T11:32:59;97509.50;;;11.70;68.80
20987;BME280;10652;50.306;8.570;2023-11-19T11:37:15;97508.28;;;11.76;68.80
20987;BME280;10652;50.306;8.570;2023-11-19T11:41:21;97508.09;;;11.79;67.62
20987;BME280;10652;50.306;8.570;2023-11-19T11:45:39;97514.28;;;11.78;65.74
20987;BME280;10652;50.306;8.570;2023-11-19T11:49:45;97497.56;;;11.79;66.69
20987;BME280;10652;50.306;8.570;2023-11-19T11:53:48;97520.13;;;11.83;66.82
20987;BME280;10652;50.306;8.570;2023-11-19T11:57:51;97505.19;;;11.84;63.68
20987;BME280;10652;50.306;8.570;2023-11-19T12:01:59;97516.56;;;11.84;64.44
20987;BME280;10652;50.306;8.570;2023-11-19T12:06:02;97505.38;;;11.80;64.80
20987;BME280;10652;50.306;8.570;2023-11-19T12:10:07;97500.94;;;11.81;65.12
20987;BME280;10652;50.306;8.570;2023-11-19T12:14:10;97502.81;;;11.79;65.58
20987;BME280;10652;50.306;8.570;2023-11-19T12:18:18;97499.25;;;11.80;65.10
20987;BME280;10652;50.306;8.570;2023-11-19T12:22:24;97486.84;;;11.82;64.98
20987;BME280;10652;50.306;8.570;2023-11-19T12:26:34;97483.28;;;11.83;65.75
20987;BME280;10652;50.306;8.570;2023-11-19T12:30:36;97483.28;;;11.83;65.17
20987;BME280;10652;50.306;8.570;2023-11-19T12:34:39;97470.88;;;11.85;65.56
20987;BME280;10652;50.306;8.570;2023-11-19T12:38:41;97476.69;;;11.90;65.50
20987;BME280;10652;50.306;8.570;2023-11-19T12:42:44;97471.34;;;11.92;64.15
20987;BME280;10652;50.306;8.570;2023-11-19T12:46:59;97464.50;;;11.89;64.39
20987;BME280;10652;50.306;8.570;2023-11-19T12:51:02;97467.13;;;11.89;64.67
20987;BME280;10652;50.306;8.570;2023-11-19T12:55:23;97447.94;;;11.87;61.63
20987;BME280;10652;50.306;8.570;2023-11-19T12:59:28;97435.53;;;11.89;63.73
20987;BME280;10652;50.306;8.570;2023-11-19T13:03:35;97428.38;;;11.91;62.07
20987;BME280;10652;50.306;8.570;2023-11-19T13:07:37;97440.81;;;11.89;61.47
20987;BME280;10652;50.306;8.570;2023-11-19T13:11:40;97422.84;;;11.81;61.47
20987;BME280;10652;50.306;8.570;2023-11-19T13:15:43;97436.47;;;11.74;61.15
20987;BME280;10652;50.306;8.570;2023-11-19T13:19:47;97433.06;;;11.72;62.31
20987;BME280;10652;50.306;8.570;2023-11-19T13:23:49;97427.81;;;11.72;64.39
20987;BME280;10652;50.306;8.570;2023-11-19T13:27:52;97424.25;;;11.73;65.62
20987;BME280;10652;50.306;8.570;2023-11-19T13:31:54;97433.06;;;11.72;67.06
20987;BME280;10652;50.306;8.570;2023-11-19T13:35:57;97428.66;;;11.72;67.27
20987;BME280;10652;50.306;8.570;2023-11-19T13:39:59;97442.22;;;11.80;67.37
20987;BME280;10652;50.306;8.570;2023-11-19T13:44:01;97430.56;;;11.85;66.00
20987;BME280;10652;50.306;8.570;2023-11-19T13:48:03;97431.41;;;11.85;66.23
20987;BME280;10652;50.306;8.570;2023-11-19T13:52:05;97435.91;;;11.83;66.40
20987;BME280;10652;50.306;8.570;2023-11-19T13:56:08;97420.31;;;11.80;65.85
20987;BME280;10652;50.306;8.570;2023-11-19T14:00:11;97415.22;;;11.77;66.02
20987;BME280;10652;50.306;8.570;2023-11-19T14:04:18;97415.41;;;11.88;65.10
20987;BME280;10652;50.306;8.570;2023-11-19T14:08:20;97399.81;;;11.85;64.83
20987;BME280;10652;50.306;8.570;2023-11-19T14:12:27;97419.91;;;11.72;63.35
20987;BME280;10652;50.306;8.570;2023-11-19T14:16:29;97416.00;;;11.65;63.14
20987;BME280;10652;50.306;8.570;2023-11-19T14:20:31;97423.78;;;11.66;63.25
20987;BME280;10652;50.306;8.570;2023-11-19T14:24:35;97398.69;;;11.61;62.78
20987;BME280;10652;50.306;8.570;2023-11-19T14:28:37;97406.50;;;11.48;63.35
20987;BME280;10652;50.306;8.570;2023-11-19T14:32:56;97409.00;;;11.35;64.40
20987;BME280;10652;50.306;8.570;2023-11-19T14:36:59;97416.72;;;11.24;65.04
20987;BME280;10652;50.306;8.570;2023-11-19T14:41:02;97405.81;;;11.16;65.02
20987;BME280;10652;50.306;8.570;2023-11-19T14:45:07;97408.75;;;11.10;65.53
20987;BME280;10652;50.306;8.570;2023-11-19T14:49:09;97417.13;;;11.03;65.63
20987;BME280;10652;50.306;8.570;2023-11-19T14:53:11;97425.41;;;10.95;65.49
20987;BME280;10652;50.306;8.570;2023-11-19T14:57:14;97421.28;;;10.91;65.69
20987;BME280;10652;50.306;8.570;2023-11-19T15:01:16;97436.38;;;10.87;65.55
20987;BME280;10652;50.306;8.570;2023-11-19T15:05:18;97445.66;;;10.79;66.30
20987;BME280;10652;50.306;8.570;2023-11-19T15:09:21;97451.25;;;10.73;66.48
20987;BME280;10652;50.306;8.570;2023-11-19T15:13:24;97455.16;;;10.66;66.83
20987;BME280;10652;50.306;8.570;2023-11-19T15:17:26;97455.69;;;10.57;67.41
20987;BME280;10652;50.306;8.570;2023-11-19T15:21:30;97450.97;;;10.47;68.06
20987;BME280;10652;50.306;8.570;2023-11-19T15:25:32;97457.31;;;10.43;68.63
20987;BME280;10652;50.306;8.570;2023-11-19T15:29:34;97465.34;;;10.40;68.66
20987;BME280;10652;50.306;8.570;2023-11-19T15:33:36;97474.00;;;10.42;68.96
20987;BME280;10652;50.306;8.570;2023-11-19T15:37:38;97463.41;;;10.44;68.95
20987;BME280;10652;50.306;8.570;2023-11-19T15:41:45;97482.31;;;10.35;69.50
20987;BME280;10652;50.306;8.570;2023-11-19T15:45:47;97473.16;;;10.42;76.64
20987;BME280;10652;50.306;8.570;2023-11-19T15:49:50;97468.44;;;10.78;77.78
20987;BME280;10652;50.306;8.570;2023-11-19T15:53:52;97481.84;;;11.04;74.94
20987;BME280;10652;50.306;8.570;2023-11-19T15:57:54;97483.41;;;10.92;70.77
20987;BME280;10652;50.306;8.570;2023-11-19T16:01:56;97482.63;;;10.76;70.61
20987;BME280;10652;50.306;8.570;2023-11-19T16:05:59;97472.44;;;10.70;70.47
20987;BME280;10652;50.306;8.570;2023-11-19T16:10:11;97488.41;;;10.67;70.14
20987;BME280;10652;50.306;8.570;2023-11-19T16:14:15;97481.69;;;10.61;70.31
20987;BME280;10652;50.306;8.570;2023-11-19T16:18:17;97476.88;;;10.54;71.27
20987;BME280;10652;50.306;8.570;2023-11-19T16:22:19;97480.94;;;10.43;71.30
20987;BME280;10652;50.306;8.570;2023-11-19T16:26:24;97480.69;;;10.32;72.44
20987;BME280;10652;50.306;8.570;2023-11-19T16:30:27;97488.38;;;10.20;72.68
20987;BME280;10652;50.306;8.570;2023-11-19T16:34:29;97482.78;;;10.10;73.74
20987;BME280;10652;50.306;8.570;2023-11-19T16:38:31;97487.28;;;10.08;74.28
20987;BME280;10652;50.306;8.570;2023-11-19T16:42:34;97500.56;;;10.05;74.54
20987;BME280;10652;50.306;8.570;2023-11-19T16:46:36;97493.94;;;9.98;74.18
20987;BME280;10652;50.306;8.570;2023-11-19T16:50:39;97492.66;;;9.89;74.85
20987;BME280;10652;50.306;8.570;2023-11-19T16:54:41;97499.06;;;9.84;75.42
20987;BME280;10652;50.306;8.570;2023-11-19T16:58:44;97495.84;;;9.79;76.10
20987;BME280;10652;50.306;8.570;2023-11-19T17:02:46;97497.53;;;9.80;76.71
20987;BME280;10652;50.306;8.570;2023-11-19T17:06:52;97508.78;;;9.82;76.66
20987;BME280;10652;50.306;8.570;2023-11-19T17:10:54;97503.53;;;9.82;76.27
20987;BME280;10652;50.306;8.570;2023-11-19T17:14:57;97506.03;;;9.85;75.91
20987;BME280;10652;50.306;8.570;2023-11-19T17:19:06;97501.53;;;9.87;75.25
20987;BME280;10652;50.306;8.570;2023-11-19T17:23:08;97514.03;;;9.82;75.11
20987;BME280;10652;50.306;8.570;2023-11-19T17:27:10;97517.91;;;9.75;76.00
20987;BME280;10652;50.306;8.570;2023-11-19T17:31:12;97496.53;;;9.65;76.46
20987;BME280;10652;50.306;8.570;2023-11-19T17:35:16;97502.25;;;9.56;76.86
20987;BME280;10652;50.306;8.570;2023-11-19T17:39:18;97506.19;;;9.47;77.01
20987;BME280;10652;50.306;8.570;2023-11-19T17:43:20;97496.81;;;9.43;78.49
20987;BME280;10652;50.306;8.570;2023-11-19T17:47:22;97503.28;;;9.53;78.60
20987;BME280;10652;50.306;8.570;2023-11-19T17:51:25;97499.41;;;9.60;77.82
20987;BME280;10652;50.306;8.570;2023-11-19T17:55:27;97509.56;;;9.67;77.21
20987;BME280;10652;50.306;8.570;2023-11-19T17:59:29;97520.75;;;9.70;76.58
20987;BME280;10652;50.306;8.570;2023-11-19T18:03:31;97514.50;;;9.73;76.11
20987;BME280;10652;50.306;8.570;2023-11-19T18:07:34;97517.06;;;9.74;75.97
20987;BME280;10652;50.306;8.570;2023-11-19T18:11:36;97531.94;;;9.74;75.67
20987;BME280;10652;50.306;8.570;2023-11-19T18:15:38;97513.81;;;9.69;75.45
20987;BME280;10652;50.306;8.570;2023-11-19T18:19:42;97522.22;;;9.58;75.64
20987;BME280;10652;50.306;8.570;2023-11-19T18:23:44;97517.31;;;9.52;75.41
20987;BME280;10652;50.306;8.570;2023-11-19T18:27:47;97518.16;;;9.53;74.93
20987;BME280;10652;50.306;8.570;2023-11-19T18:31:49;97506.66;;;9.55;75.08
20987;BME280;10652;50.306;8.570;2023-11-19T18:35:51;97506.72;;;9.54;74.74
20987;BME280;10652;50.306;8.570;2023-11-19T18:39:53;97512.06;;;9.52;74.76
20987;BME280;10652;50.306;8.570;2023-11-19T18:43:56;97514.81;;;9.49;74.92
20987;BME280;10652;50.306;8.570;2023-11-19T18:47:58;97516.06;;;9.42;74.39
20987;BME280;10652;50.306;8.570;2023-11-19T18:52:01;97514.38;;;9.41;74.80
20987;BME280;10652;50.306;8.570;2023-11-19T18:56:04;97516.06;;;9.42;74.70
20987;BME280;10652;50.306;8.570;2023-11-19T19:00:07;97519.59;;;9.41;74.90
20987;BME280;10652;50.306;8.570;2023-11-19T19:04:13;97522.09;;;9.44;74.79
20987;BME280;10652;50.306;8.570;2023-11-19T19:08:16;97527.78;;;9.52;74.05
20987;BME280;10652;50.306;8.570;2023-11-19T19:12:19;97523.41;;;9.53;74.33
20987;BME280;10652;50.306;8.570;2023-11-19T19:16:21;97525.00;;;9.55;74.63
20987;BME280;10652;50.306;8.570;2023-11-19T19:20:23;97523.91;;;9.59;75.17
20987;BME280;10652;50.306;8.570;2023-11-19T19:24:25;97513.34;;;9.61;75.32
20987;BME280;10652;50.306;8.570;2023-11-19T19:28:27;97516.66;;;9.65;76.48
20987;BME280;10652;50.306;8.570;2023-11-19T19:32:30;97507.94;;;9.64;77.03
20987;BME280;10652;50.306;8.570;2023-11-19T19:36:32;97514.97;;;9.64;77.34
20987;BME280;10652;50.306;8.570;2023-11-19T19:40:35;97516.84;;;9.62;77.33
20987;BME280;10652;50.306;8.570;2023-11-19T19:44:37;97527.94;;;9.67;77.35
20987;BME280;10652;50.306;8.570;2023-11-19T19:48:39;97530.56;;;9.67;77.24
20987;BME280;10652;50.306;8.570;2023-11-19T19:52:42;97511.25;;;9.68;77.20
20987;BME280;10652;50.306;8.570;2023-11-19T19:56:45;97510.25;;;9.70;77.51
20987;BME280;10652;50.306;8.570;2023-11-19T20:00:47;97503.25;;;9.71;76.99
20987;BME280;10652;50.306;8.570;2023-11-19T20:04:49;97500.63;;;9.71;77.45
20987;BME280;10652;50.306;8.570;2023-11-19T20:08:55;97520.69;;;9.72;77.76
20987;BME280;10652;50.306;8.570;2023-11-19T20:12:58;97494.38;;;9.73;78.09
20987;BME280;10652;50.306;8.570;2023-11-19T20:17:03;97513.44;;;9.77;78.67
20987;BME280;10652;50.306;8.570;2023-11-19T20:21:08;97515.91;;;9.80;78.12
20987;BME280;10652;50.306;8.570;2023-11-19T20:25:10;97508.03;;;9.80;78.26
20987;BME280;10652;50.306;8.570;2023-11-19T20:29:13;97497.63;;;9.78;78.30
20987;BME280;10652;50.306;8.570;2023-11-19T20:33:15;97491.44;;;9.79;78.70
20987;BME280;10652;50.306;8.570;2023-11-19T20:37:17;97503.53;;;9.82;78.41
20987;BME280;10652;50.306;8.570;2023-11-19T20:41:20;97500.16;;;9.80;78.26
20987;BME280;10652;50.306;8.570;2023-11-19T20:45:23;97491.38;;;9.81;78.50
20987;BME280;10652;50.306;8.570;2023-11-19T20:49:28;97492.06;;;9.84;78.69
20987;BME280;10652;50.306;8.570;2023-11-19T20:53:31;97494.56;;;9.86;78.63
20987;BME280;10652;50.306;8.570;2023-11-19T20:57:33;97503.28;;;9.86;78.06
20987;BME280;10652;50.306;8.570;2023-11-19T21:01:36;97497.97;;;9.88;78.37
20987;BME280;10652;50.306;8.570;2023-11-19T21:05:38;97495.28;;;9.89;78.57
20987;BME280;10652;50.306;8.570;2023-11-19T21:09:41;97496.13;;;9.90;79.01
20987;BME280;10652;50.306;8.570;2023-11-19T21:13:43;97499.44;;;9.93;79.86
20987;BME280;10652;50.306;8.570;2023-11-19T21:17:48;97490.50;;;10.60;87.17
20987;BME280;10652;50.306;8.570;2023-11-19T21:21:50;97483.59;;;10.89;83.38
20987;BME280;10652;50.306;8.570;2023-11-19T21:25:53;97483.56;;;11.05;80.09
20987;BME280;10652;50.306;8.570;2023-11-19T21:29:55;97490.31;;;11.09;79.73
20987;BME280;10652;50.306;8.570;2023-11-19T21:34:00;97491.50;;;10.89;74.50
20987;BME280;10652;50.306;8.570;2023-11-19T21:38:02;97499.06;;;10.64;74.90